sensor_id;sensor_type;location;lat;lon;timestamp;temperature;humidity
59975;DHT22;62136;-35.664;-63.766;2023-02-28T00:00:54;29.90;32.70
59975;DHT22;62136;-35.664;-63.766;2023-02-28T00:03:21;29.90;32.70
59975;DHT22;62136;-35.664;-63.766;2023-02-28T00:05:48;29.90;32.70
59975;DHT22;62136;-35.664;-63.766;2023-02-28T00:08:15;29.80;32.70
59975;DHT22;62136;-35.664;-63.766;2023-02-28T00:10:43;29.80;33.20
59975;DHT22;62136;-35.664;-63.766;2023-02-28T00:13:10;29.80;32.70
59975;DHT22;62136;-35.664;-63.766;2023-02-28T00:15:37;29.80;32.80
59975;DHT22;62136;-35.664;-63.766;2023-02-28T00:18:04;29.80;32.80
59975;DHT22;62136;-35.664;-63.766;2023-02-28T00:20:31;29.80;32.80
59975;DHT22;62136;-35.664;-63.766;2023-02-28T00:22:58;29.80;32.80
59975;DHT22;62136;-35.664;-63.766;2023-02-28T00:25:26;29.80;32.90
59975;DHT22;62136;-35.664;-63.766;2023-02-28T00:27:53;29.80;33.00
59975;DHT22;62136;-35.664;-63.766;2023-02-28T00:30:22;29.80;33.00
59975;DHT22;62136;-35.664;-63.766;2023-02-28T00:32:50;29.70;32.90
59975;DHT22;62136;-35.664;-63.766;2023-02-28T00:35:17;29.70;33.00
59975;DHT22;62136;-35.664;-63.766;2023-02-28T00:37:44;29.70;33.00
59975;DHT22;62136;-35.664;-63.766;2023-02-28T00:40:12;29.70;33.20
59975;DHT22;62136;-35.664;-63.766;2023-02-28T00:42:39;29.70;33.10
59975;DHT22;62136;-35.664;-63.766;2023-02-28T00:45:07;29.70;33.10
59975;DHT22;62136;-35.664;-63.766;2023-02-28T00:47:34;29.70;33.20
59975;DHT22;62136;-35.664;-63.766;2023-02-28T00:50:02;29.70;33.20
59975;DHT22;62136;-35.664;-63.766;2023-02-28T00:52:29;29.70;33.30
59975;DHT22;62136;-35.664;-63.766;2023-02-28T00:54:56;29.60;33.30
59975;DHT22;62136;-35.664;-63.766;2023-02-28T00:57:23;29.60;33.20
59975;DHT22;62136;-35.664;-63.766;2023-02-28T00:59:50;29.70;33.30
59975;DHT22;62136;-35.664;-63.766;2023-02-28T01:02:22;29.60;33.30
59975;DHT22;62136;-35.664;-63.766;2023-02-28T01:04:49;29.60;33.40
59975;DHT22;62136;-35.664;-63.766;2023-02-28T01:07:16;29.60;33.40
59975;DHT22;62136;-35.664;-63.766;2023-02-28T01:09:43;29.60;33.40
59975;DHT22;62136;-35.664;-63.766;2023-02-28T01:12:10;29.60;33.50
59975;DHT22;62136;-35.664;-63.766;2023-02-28T01:14:38;29.60;33.50
59975;DHT22;62136;-35.664;-63.766;2023-02-28T01:17:05;29.60;33.50
59975;DHT22;62136;-35.664;-63.766;2023-02-28T01:19:32;29.50;33.50
59975;DHT22;62136;-35.664;-63.766;2023-02-28T01:22:06;29.50;33.60
59975;DHT22;62136;-35.664;-63.766;2023-02-28T01:24:33;29.50;33.60
59975;DHT22;62136;-35.664;-63.766;2023-02-28T01:27:00;29.50;33.60
59975;DHT22;62136;-35.664;-63.766;2023-02-28T01:29:28;29.50;33.70
59975;DHT22;62136;-35.664;-63.766;2023-02-28T01:31:55;29.40;33.70
59975;DHT22;62136;-35.664;-63.766;2023-02-28T01:34:29;29.50;33.80
59975;DHT22;62136;-35.664;-63.766;2023-02-28T01:36:56;29.40;33.70
59975;DHT22;62136;-35.664;-63.766;2023-02-28T01:39:26;29.40;33.80
59975;DHT22;62136;-35.664;-63.766;2023-02-28T01:41:59;29.40;33.90
59975;DHT22;62136;-35.664;-63.766;2023-02-28T01:45:04;29.40;33.90
59975;DHT22;62136;-35.664;-63.766;2023-02-28T01:47:39;29.40;34.00
59975;DHT22;62136;-35.664;-63.766;2023-02-28T01:50:14;29.30;34.00
59975;DHT22;62136;-35.664;-63.766;2023-02-28T01:52:42;29.30;34.00
59975;DHT22;62136;-35.664;-63.766;2023-02-28T01:55:13;29.30;34.00
59975;DHT22;62136;-35.664;-63.766;2023-02-28T01:57:45;29.30;34.10
59975;DHT22;62136;-35.664;-63.766;2023-02-28T02:00:15;29.30;34.10
59975;DHT22;62136;-35.664;-63.766;2023-02-28T02:02:49;29.30;34.10
59975;DHT22;62136;-35.664;-63.766;2023-02-28T02:05:22;29.30;34.20
59975;DHT22;62136;-35.664;-63.766;2023-02-28T02:07:55;29.20;34.20
59975;DHT22;62136;-35.664;-63.766;2023-02-28T02:10:39;29.20;34.30
59975;DHT22;62136;-35.664;-63.766;2023-02-28T02:27:56;29.20;34.50
59975;DHT22;62136;-35.664;-63.766;2023-02-28T02:33:26;29.10;34.50
59975;DHT22;62136;-35.664;-63.766;2023-02-28T02:46:58;29.00;34.70
59975;DHT22;62136;-35.664;-63.766;2023-02-28T02:49:32;29.00;34.80
59975;DHT22;62136;-35.664;-63.766;2023-02-28T02:52:08;29.10;34.90
59975;DHT22;62136;-35.664;-63.766;2023-02-28T02:54:38;29.00;34.90
59975;DHT22;62136;-35.664;-63.766;2023-02-28T02:57:30;29.00;34.90
59975;DHT22;62136;-35.664;-63.766;2023-02-28T02:59:56;29.00;35.00
59975;DHT22;62136;-35.664;-63.766;2023-02-28T03:02:25;29.00;35.10
59975;DHT22;62136;-35.664;-63.766;2023-02-28T03:04:59;29.00;35.10
59975;DHT22;62136;-35.664;-63.766;2023-02-28T03:07:30;29.00;35.10
59975;DHT22;62136;-35.664;-63.766;2023-02-28T03:09:57;29.00;35.10
59975;DHT22;62136;-35.664;-63.766;2023-02-28T03:12:37;28.90;35.10
59975;DHT22;62136;-35.664;-63.766;2023-02-28T03:15:39;28.90;35.70
59975;DHT22;62136;-35.664;-63.766;2023-02-28T03:18:17;28.90;35.30
59975;DHT22;62136;-35.664;-63.766;2023-02-28T03:20:59;28.90;35.30
59975;DHT22;62136;-35.664;-63.766;2023-02-28T03:23:38;28.90;35.40
59975;DHT22;62136;-35.664;-63.766;2023-02-28T03:26:21;28.80;35.40
59975;DHT22;62136;-35.664;-63.766;2023-02-28T03:31:43;28.80;35.40
59975;DHT22;62136;-35.664;-63.766;2023-02-28T03:36:54;28.80;35.50
59975;DHT22;62136;-35.664;-63.766;2023-02-28T03:39:28;28.80;35.50
59975;DHT22;62136;-35.664;-63.766;2023-02-28T03:42:05;28.80;35.50
59975;DHT22;62136;-35.664;-63.766;2023-02-28T03:44:45;28.70;35.50
59975;DHT22;62136;-35.664;-63.766;2023-02-28T03:47:25;28.70;35.60
59975;DHT22;62136;-35.664;-63.766;2023-02-28T03:53:12;28.70;35.70
59975;DHT22;62136;-35.664;-63.766;2023-02-28T03:55:49;28.70;35.80
59975;DHT22;62136;-35.664;-63.766;2023-02-28T03:58:27;28.70;35.80
59975;DHT22;62136;-35.664;-63.766;2023-02-28T04:01:12;28.70;35.90
59975;DHT22;62136;-35.664;-63.766;2023-02-28T04:03:40;28.60;35.90
59975;DHT22;62136;-35.664;-63.766;2023-02-28T04:06:20;28.70;36.00
59975;DHT22;62136;-35.664;-63.766;2023-02-28T04:08:48;28.60;35.90
59975;DHT22;62136;-35.664;-63.766;2023-02-28T04:11:20;28.60;36.00
59975;DHT22;62136;-35.664;-63.766;2023-02-28T04:13:49;28.60;36.00
59975;DHT22;62136;-35.664;-63.766;2023-02-28T04:16:16;28.60;36.10
59975;DHT22;62136;-35.664;-63.766;2023-02-28T04:18:43;28.60;36.20
59975;DHT22;62136;-35.664;-63.766;2023-02-28T04:21:10;28.60;36.20
59975;DHT22;62136;-35.664;-63.766;2023-02-28T04:23:38;28.50;36.20
59975;DHT22;62136;-35.664;-63.766;2023-02-28T04:26:05;28.60;36.30
59975;DHT22;62136;-35.664;-63.766;2023-02-28T04:28:33;28.60;36.40
59975;DHT22;62136;-35.664;-63.766;2023-02-28T04:31:03;28.50;36.30
59975;DHT22;62136;-35.664;-63.766;2023-02-28T04:33:31;28.50;36.40
59975;DHT22;62136;-35.664;-63.766;2023-02-28T04:36:07;28.50;36.30
59975;DHT22;62136;-35.664;-63.766;2023-02-28T04:38:37;28.50;36.40
59975;DHT22;62136;-35.664;-63.766;2023-02-28T04:41:05;28.50;36.50
59975;DHT22;62136;-35.664;-63.766;2023-02-28T04:43:32;28.50;36.50
59975;DHT22;62136;-35.664;-63.766;2023-02-28T04:46:02;28.50;36.60
59975;DHT22;62136;-35.664;-63.766;2023-02-28T04:48:31;28.50;36.70
59975;DHT22;62136;-35.664;-63.766;2023-02-28T04:51:07;28.50;36.60
59975;DHT22;62136;-35.664;-63.766;2023-02-28T04:53:35;28.50;36.70
59975;DHT22;62136;-35.664;-63.766;2023-02-28T04:56:03;28.50;36.70
59975;DHT22;62136;-35.664;-63.766;2023-02-28T04:58:30;28.40;36.70
59975;DHT22;62136;-35.664;-63.766;2023-02-28T05:01:26;28.40;36.80
59975;DHT22;62136;-35.664;-63.766;2023-02-28T05:03:54;28.50;36.80
59975;DHT22;62136;-35.664;-63.766;2023-02-28T05:06:23;28.40;36.90
59975;DHT22;62136;-35.664;-63.766;2023-02-28T05:08:51;28.40;37.00
59975;DHT22;62136;-35.664;-63.766;2023-02-28T05:11:22;28.40;37.10
59975;DHT22;62136;-35.664;-63.766;2023-02-28T05:13:51;28.40;37.10
59975;DHT22;62136;-35.664;-63.766;2023-02-28T05:16:19;28.40;37.10
59975;DHT22;62136;-35.664;-63.766;2023-02-28T05:18:46;28.30;37.20
59975;DHT22;62136;-35.664;-63.766;2023-02-28T05:21:33;28.40;37.20
59975;DHT22;62136;-35.664;-63.766;2023-02-28T05:24:05;28.40;37.20
59975;DHT22;62136;-35.664;-63.766;2023-02-28T05:26:39;28.40;37.30
59975;DHT22;62136;-35.664;-63.766;2023-02-28T05:29:07;28.30;37.30
59975;DHT22;62136;-35.664;-63.766;2023-02-28T05:31:34;28.30;37.30
59975;DHT22;62136;-35.664;-63.766;2023-02-28T05:34:01;28.30;37.40
59975;DHT22;62136;-35.664;-63.766;2023-02-28T05:36:30;28.30;37.50
59975;DHT22;62136;-35.664;-63.766;2023-02-28T05:38:57;28.30;37.50
59975;DHT22;62136;-35.664;-63.766;2023-02-28T05:41:24;28.30;37.50
59975;DHT22;62136;-35.664;-63.766;2023-02-28T05:43:52;28.30;37.60
59975;DHT22;62136;-35.664;-63.766;2023-02-28T05:46:19;28.30;37.60
59975;DHT22;62136;-35.664;-63.766;2023-02-28T05:48:47;28.30;37.70
59975;DHT22;62136;-35.664;-63.766;2023-02-28T05:51:14;28.30;37.70
59975;DHT22;62136;-35.664;-63.766;2023-02-28T05:53:41;28.20;37.70
59975;DHT22;62136;-35.664;-63.766;2023-02-28T05:56:09;28.30;37.80
59975;DHT22;62136;-35.664;-63.766;2023-02-28T05:58:36;28.20;37.80
59975;DHT22;62136;-35.664;-63.766;2023-02-28T06:01:33;28.20;37.80
59975;DHT22;62136;-35.664;-63.766;2023-02-28T06:04:02;28.20;37.80
59975;DHT22;62136;-35.664;-63.766;2023-02-28T06:06:29;28.20;38.00
59975;DHT22;62136;-35.664;-63.766;2023-02-28T06:08:57;28.20;38.00
59975;DHT22;62136;-35.664;-63.766;2023-02-28T06:11:24;28.20;38.00
59975;DHT22;62136;-35.664;-63.766;2023-02-28T06:13:58;28.20;38.10
59975;DHT22;62136;-35.664;-63.766;2023-02-28T06:16:27;28.20;38.10
59975;DHT22;62136;-35.664;-63.766;2023-02-28T06:18:56;28.20;38.10
59975;DHT22;62136;-35.664;-63.766;2023-02-28T06:21:24;28.10;38.30
59975;DHT22;62136;-35.664;-63.766;2023-02-28T06:23:51;28.10;38.30
59975;DHT22;62136;-35.664;-63.766;2023-02-28T06:26:18;28.10;38.10
59975;DHT22;62136;-35.664;-63.766;2023-02-28T06:28:46;28.10;38.30
59975;DHT22;62136;-35.664;-63.766;2023-02-28T06:31:15;28.10;37.80
59975;DHT22;62136;-35.664;-63.766;2023-02-28T06:33:44;28.10;38.40
59975;DHT22;62136;-35.664;-63.766;2023-02-28T06:36:12;28.10;38.40
59975;DHT22;62136;-35.664;-63.766;2023-02-28T06:38:40;28.10;38.50
59975;DHT22;62136;-35.664;-63.766;2023-02-28T06:41:08;28.10;38.50
59975;DHT22;62136;-35.664;-63.766;2023-02-28T06:43:38;28.10;38.40
59975;DHT22;62136;-35.664;-63.766;2023-02-28T06:46:07;28.10;38.60
59975;DHT22;62136;-35.664;-63.766;2023-02-28T06:48:35;28.10;38.50
59975;DHT22;62136;-35.664;-63.766;2023-02-28T06:51:28;28.00;38.50
59975;DHT22;62136;-35.664;-63.766;2023-02-28T06:53:55;28.00;38.80
59975;DHT22;62136;-35.664;-63.766;2023-02-28T06:56:22;28.00;38.80
59975;DHT22;62136;-35.664;-63.766;2023-02-28T06:58:50;28.00;38.80
59975;DHT22;62136;-35.664;-63.766;2023-02-28T07:01:19;28.00;38.30
59975;DHT22;62136;-35.664;-63.766;2023-02-28T07:03:49;27.90;38.90
59975;DHT22;62136;-35.664;-63.766;2023-02-28T07:06:23;28.00;39.00
59975;DHT22;62136;-35.664;-63.766;2023-02-28T07:08:51;28.00;39.10
59975;DHT22;62136;-35.664;-63.766;2023-02-28T07:11:20;28.00;39.10
59975;DHT22;62136;-35.664;-63.766;2023-02-28T07:13:49;28.00;39.10
59975;DHT22;62136;-35.664;-63.766;2023-02-28T07:16:17;27.90;38.90
59975;DHT22;62136;-35.664;-63.766;2023-02-28T07:18:44;27.90;38.90
59975;DHT22;62136;-35.664;-63.766;2023-02-28T07:21:12;27.90;39.20
59975;DHT22;62136;-35.664;-63.766;2023-02-28T07:23:39;27.90;39.30
59975;DHT22;62136;-35.664;-63.766;2023-02-28T07:26:10;27.90;39.20
59975;DHT22;62136;-35.664;-63.766;2023-02-28T07:28:39;27.90;39.20
59975;DHT22;62136;-35.664;-63.766;2023-02-28T07:31:06;27.90;39.10
59975;DHT22;62136;-35.664;-63.766;2023-02-28T07:33:34;27.90;39.60
59975;DHT22;62136;-35.664;-63.766;2023-02-28T07:36:06;27.90;39.10
59975;DHT22;62136;-35.664;-63.766;2023-02-28T07:38:36;27.90;39.40
59975;DHT22;62136;-35.664;-63.766;2023-02-28T07:41:04;27.80;39.60
59975;DHT22;62136;-35.664;-63.766;2023-02-28T07:43:32;27.80;39.60
59975;DHT22;62136;-35.664;-63.766;2023-02-28T07:46:11;27.80;39.50
59975;DHT22;62136;-35.664;-63.766;2023-02-28T07:48:38;27.80;39.30
59975;DHT22;62136;-35.664;-63.766;2023-02-28T07:51:05;27.70;39.80
59975;DHT22;62136;-35.664;-63.766;2023-02-28T07:53:33;27.80;39.90
59975;DHT22;62136;-35.664;-63.766;2023-02-28T07:56:01;27.80;39.70
59975;DHT22;62136;-35.664;-63.766;2023-02-28T07:58:29;27.80;40.00
59975;DHT22;62136;-35.664;-63.766;2023-02-28T08:00:57;27.70;40.00
59975;DHT22;62136;-35.664;-63.766;2023-02-28T08:03:31;27.70;40.00
59975;DHT22;62136;-35.664;-63.766;2023-02-28T08:05:58;27.70;40.00
59975;DHT22;62136;-35.664;-63.766;2023-02-28T08:08:25;27.70;39.80
59975;DHT22;62136;-35.664;-63.766;2023-02-28T08:10:55;27.70;39.60
59975;DHT22;62136;-35.664;-63.766;2023-02-28T08:13:22;27.70;39.90
59975;DHT22;62136;-35.664;-63.766;2023-02-28T08:15:49;27.70;40.20
59975;DHT22;62136;-35.664;-63.766;2023-02-28T08:18:16;27.70;40.30
59975;DHT22;62136;-35.664;-63.766;2023-02-28T08:20:43;27.60;40.20
59975;DHT22;62136;-35.664;-63.766;2023-02-28T08:23:10;27.60;40.20
59975;DHT22;62136;-35.664;-63.766;2023-02-28T08:25:37;27.60;40.30
59975;DHT22;62136;-35.664;-63.766;2023-02-28T08:28:04;27.60;40.30
59975;DHT22;62136;-35.664;-63.766;2023-02-28T08:30:31;27.60;40.10
59975;DHT22;62136;-35.664;-63.766;2023-02-28T08:32:58;27.60;40.50
59975;DHT22;62136;-35.664;-63.766;2023-02-28T08:35:25;27.60;40.40
59975;DHT22;62136;-35.664;-63.766;2023-02-28T08:37:52;27.60;40.50
59975;DHT22;62136;-35.664;-63.766;2023-02-28T08:40:19;27.60;40.70
59975;DHT22;62136;-35.664;-63.766;2023-02-28T08:42:47;27.50;40.70
59975;DHT22;62136;-35.664;-63.766;2023-02-28T08:45:15;27.50;40.60
59975;DHT22;62136;-35.664;-63.766;2023-02-28T08:47:42;27.50;40.60
59975;DHT22;62136;-35.664;-63.766;2023-02-28T08:50:09;27.50;40.50
59975;DHT22;62136;-35.664;-63.766;2023-02-28T08:52:36;27.50;40.70
59975;DHT22;62136;-35.664;-63.766;2023-02-28T08:55:05;27.50;40.70
59975;DHT22;62136;-35.664;-63.766;2023-02-28T08:57:32;27.50;40.90
59975;DHT22;62136;-35.664;-63.766;2023-02-28T08:59:59;27.50;40.60
59975;DHT22;62136;-35.664;-63.766;2023-02-28T09:02:33;27.50;40.70
59975;DHT22;62136;-35.664;-63.766;2023-02-28T09:05:00;27.50;41.00
59975;DHT22;62136;-35.664;-63.766;2023-02-28T09:07:27;27.50;41.00
59975;DHT22;62136;-35.664;-63.766;2023-02-28T09:09:54;27.50;40.90
59975;DHT22;62136;-35.664;-63.766;2023-02-28T09:12:25;27.50;41.00
59975;DHT22;62136;-35.664;-63.766;2023-02-28T09:14:53;27.40;41.00
59975;DHT22;62136;-35.664;-63.766;2023-02-28T09:17:20;27.40;40.90
59975;DHT22;62136;-35.664;-63.766;2023-02-28T09:19:50;27.40;41.10
59975;DHT22;62136;-35.664;-63.766;2023-02-28T09:22:17;27.40;41.30
59975;DHT22;62136;-35.664;-63.766;2023-02-28T09:24:44;27.40;40.90
59975;DHT22;62136;-35.664;-63.766;2023-02-28T09:27:11;27.40;41.20
59975;DHT22;62136;-35.664;-63.766;2023-02-28T09:29:38;27.40;41.10
59975;DHT22;62136;-35.664;-63.766;2023-02-28T09:32:06;27.40;40.80
59975;DHT22;62136;-35.664;-63.766;2023-02-28T09:34:33;27.40;41.40
59975;DHT22;62136;-35.664;-63.766;2023-02-28T09:37:00;27.40;41.30
59975;DHT22;62136;-35.664;-63.766;2023-02-28T09:39:27;27.30;41.50
59975;DHT22;62136;-35.664;-63.766;2023-02-28T09:41:55;27.30;41.60
59975;DHT22;62136;-35.664;-63.766;2023-02-28T09:44:37;27.40;41.60
59975;DHT22;62136;-35.664;-63.766;2023-02-28T09:50:00;27.30;41.50
59975;DHT22;62136;-35.664;-63.766;2023-02-28T09:52:30;27.30;41.70
59975;DHT22;62136;-35.664;-63.766;2023-02-28T09:55:22;27.30;41.70
59975;DHT22;62136;-35.664;-63.766;2023-02-28T09:57:51;27.30;41.50
59975;DHT22;62136;-35.664;-63.766;2023-02-28T10:00:33;27.30;41.80
59975;DHT22;62136;-35.664;-63.766;2023-02-28T10:03:04;27.20;41.90
59975;DHT22;62136;-35.664;-63.766;2023-02-28T10:08:36;27.20;41.80
59975;DHT22;62136;-35.664;-63.766;2023-02-28T10:11:11;27.20;42.40
59975;DHT22;62136;-35.664;-63.766;2023-02-28T10:14:23;27.10;43.00
59975;DHT22;62136;-35.664;-63.766;2023-02-28T10:16:56;26.90;44.40
59975;DHT22;62136;-35.664;-63.766;2023-02-28T10:20:01;26.90;45.70
59975;DHT22;62136;-35.664;-63.766;2023-02-28T10:22:33;26.80;46.70
59975;DHT22;62136;-35.664;-63.766;2023-02-28T10:25:01;26.70;45.30
59975;DHT22;62136;-35.664;-63.766;2023-02-28T10:27:34;26.70;46.30
59975;DHT22;62136;-35.664;-63.766;2023-02-28T10:30:03;26.70;46.20
59975;DHT22;62136;-35.664;-63.766;2023-02-28T10:32:35;26.70;47.10
59975;DHT22;62136;-35.664;-63.766;2023-02-28T10:35:23;26.70;47.30
59975;DHT22;62136;-35.664;-63.766;2023-02-28T10:37:56;26.70;47.20
59975;DHT22;62136;-35.664;-63.766;2023-02-28T10:43:01;26.70;46.60
59975;DHT22;62136;-35.664;-63.766;2023-02-28T10:45:34;26.70;46.80
59975;DHT22;62136;-35.664;-63.766;2023-02-28T10:51:14;26.70;47.60
59975;DHT22;62136;-35.664;-63.766;2023-02-28T10:53:49;26.70;46.50
59975;DHT22;62136;-35.664;-63.766;2023-02-28T10:56:22;26.70;47.20
59975;DHT22;62136;-35.664;-63.766;2023-02-28T11:07:17;26.60;49.20
59975;DHT22;62136;-35.664;-63.766;2023-02-28T11:09:51;26.50;48.70
59975;DHT22;62136;-35.664;-63.766;2023-02-28T11:12:33;26.50;48.10
59975;DHT22;62136;-35.664;-63.766;2023-02-28T11:15:34;26.60;49.20
59975;DHT22;62136;-35.664;-63.766;2023-02-28T11:20:35;26.60;47.70
59975;DHT22;62136;-35.664;-63.766;2023-02-28T11:23:03;26.60;49.70
59975;DHT22;62136;-35.664;-63.766;2023-02-28T11:25:38;26.60;49.30
59975;DHT22;62136;-35.664;-63.766;2023-02-28T11:28:25;26.70;48.00
59975;DHT22;62136;-35.664;-63.766;2023-02-28T11:34:00;26.70;49.70
59975;DHT22;62136;-35.664;-63.766;2023-02-28T11:36:30;26.70;47.90
59975;DHT22;62136;-35.664;-63.766;2023-02-28T11:39:00;26.70;48.90
59975;DHT22;62136;-35.664;-63.766;2023-02-28T11:50:14;26.90;49.00
59975;DHT22;62136;-35.664;-63.766;2023-02-28T11:55:42;26.90;48.70
59975;DHT22;62136;-35.664;-63.766;2023-02-28T12:04:10;26.90;48.10
59975;DHT22;62136;-35.664;-63.766;2023-02-28T12:26:31;27.00;50.50
59975;DHT22;62136;-35.664;-63.766;2023-02-28T12:29:25;27.00;48.70
59975;DHT22;62136;-35.664;-63.766;2023-02-28T12:32:21;27.00;49.70
59975;DHT22;62136;-35.664;-63.766;2023-02-28T12:34:57;27.00;48.60
59975;DHT22;62136;-35.664;-63.766;2023-02-28T12:37:57;27.10;48.50
59975;DHT22;62136;-35.664;-63.766;2023-02-28T12:40:22;27.10;49.70
59975;DHT22;62136;-35.664;-63.766;2023-02-28T12:42:56;27.10;51.50
59975;DHT22;62136;-35.664;-63.766;2023-02-28T12:46:03;27.10;50.80
59975;DHT22;62136;-35.664;-63.766;2023-02-28T12:51:08;27.10;52.00
59975;DHT22;62136;-35.664;-63.766;2023-02-28T12:56:30;27.20;52.10
59975;DHT22;62136;-35.664;-63.766;2023-02-28T12:59:12;27.20;51.80
59975;DHT22;62136;-35.664;-63.766;2023-02-28T13:10:11;27.50;51.50
59975;DHT22;62136;-35.664;-63.766;2023-02-28T13:12:49;27.50;51.70
59975;DHT22;62136;-35.664;-63.766;2023-02-28T13:15:21;27.50;52.10
59975;DHT22;62136;-35.664;-63.766;2023-02-28T13:17:53;27.60;51.60
59975;DHT22;62136;-35.664;-63.766;2023-02-28T13:20:35;27.60;51.90
59975;DHT22;62136;-35.664;-63.766;2023-02-28T13:23:04;27.70;51.60
59975;DHT22;62136;-35.664;-63.766;2023-02-28T13:25:52;27.70;51.30
59975;DHT22;62136;-35.664;-63.766;2023-02-28T13:31:15;27.90;51.80
59975;DHT22;62136;-35.664;-63.766;2023-02-28T13:46:34;28.20;50.90
59975;DHT22;62136;-35.664;-63.766;2023-02-28T13:51:41;28.30;50.50
59975;DHT22;62136;-35.664;-63.766;2023-02-28T14:03:07;28.60;50.50
59975;DHT22;62136;-35.664;-63.766;2023-02-28T14:05:36;28.60;50.40
59975;DHT22;62136;-35.664;-63.766;2023-02-28T14:08:25;28.60;49.60
59975;DHT22;62136;-35.664;-63.766;2023-02-28T14:11:05;28.70;50.30
59975;DHT22;62136;-35.664;-63.766;2023-02-28T14:13:45;28.70;49.90
59975;DHT22;62136;-35.664;-63.766;2023-02-28T14:16:25;28.80;50.10
59975;DHT22;62136;-35.664;-63.766;2023-02-28T14:19:02;28.90;49.90
59975;DHT22;62136;-35.664;-63.766;2023-02-28T14:21:35;29.00;49.90
59975;DHT22;62136;-35.664;-63.766;2023-02-28T14:35:43;29.20;49.00
59975;DHT22;62136;-35.664;-63.766;2023-02-28T14:38:25;29.30;49.10
59975;DHT22;62136;-35.664;-63.766;2023-02-28T14:40:56;29.40;48.80
59975;DHT22;62136;-35.664;-63.766;2023-02-28T14:43:26;29.40;48.20
59975;DHT22;62136;-35.664;-63.766;2023-02-28T14:46:00;29.50;48.20
59975;DHT22;62136;-35.664;-63.766;2023-02-28T14:48:29;29.50;47.90
59975;DHT22;62136;-35.664;-63.766;2023-02-28T14:51:01;29.60;48.20
59975;DHT22;62136;-35.664;-63.766;2023-02-28T14:53:36;29.70;47.80
59975;DHT22;62136;-35.664;-63.766;2023-02-28T14:56:04;29.70;47.70
59975;DHT22;62136;-35.664;-63.766;2023-02-28T14:58:33;29.80;47.40
59975;DHT22;62136;-35.664;-63.766;2023-02-28T15:01:02;29.80;47.40
59975;DHT22;62136;-35.664;-63.766;2023-02-28T15:03:38;29.90;47.30
59975;DHT22;62136;-35.664;-63.766;2023-02-28T15:06:16;29.90;47.10
59975;DHT22;62136;-35.664;-63.766;2023-02-28T15:08:44;30.00;47.10
59975;DHT22;62136;-35.664;-63.766;2023-02-28T15:11:17;29.90;47.00
59975;DHT22;62136;-35.664;-63.766;2023-02-28T15:13:52;30.00;47.30
59975;DHT22;62136;-35.664;-63.766;2023-02-28T15:16:57;30.00;47.20
59975;DHT22;62136;-35.664;-63.766;2023-02-28T15:29:22;29.80;47.30
59975;DHT22;62136;-35.664;-63.766;2023-02-28T15:32:01;29.80;47.70
59975;DHT22;62136;-35.664;-63.766;2023-02-28T15:34:41;29.70;48.00
59975;DHT22;62136;-35.664;-63.766;2023-02-28T15:37:37;29.70;47.70
59975;DHT22;62136;-35.664;-63.766;2023-02-28T15:42:57;29.70;47.70
59975;DHT22;62136;-35.664;-63.766;2023-02-28T15:45:31;29.70;47.70
59975;DHT22;62136;-35.664;-63.766;2023-02-28T15:48:01;29.80;47.60
59975;DHT22;62136;-35.664;-63.766;2023-02-28T15:50:28;29.70;47.50
59975;DHT22;62136;-35.664;-63.766;2023-02-28T15:52:56;29.80;47.50
59975;DHT22;62136;-35.664;-63.766;2023-02-28T15:55:27;29.80;47.50
59975;DHT22;62136;-35.664;-63.766;2023-02-28T15:57:57;29.80;47.40
59975;DHT22;62136;-35.664;-63.766;2023-02-28T16:00:28;29.90;47.30
59975;DHT22;62136;-35.664;-63.766;2023-02-28T16:02:56;29.90;47.20
59975;DHT22;62136;-35.664;-63.766;2023-02-28T16:05:27;29.90;47.30
59975;DHT22;62136;-35.664;-63.766;2023-02-28T16:07:58;29.90;47.20
59975;DHT22;62136;-35.664;-63.766;2023-02-28T16:10:27;29.90;47.20
59975;DHT22;62136;-35.664;-63.766;2023-02-28T16:12:56;30.00;47.10
59975;DHT22;62136;-35.664;-63.766;2023-02-28T16:15:37;30.00;47.00
59975;DHT22;62136;-35.664;-63.766;2023-02-28T16:18:12;30.00;47.10
59975;DHT22;62136;-35.664;-63.766;2023-02-28T16:20:40;30.10;46.90
59975;DHT22;62136;-35.664;-63.766;2023-02-28T16:23:07;30.00;46.80
59975;DHT22;62136;-35.664;-63.766;2023-02-28T16:25:40;30.10;46.80
59975;DHT22;62136;-35.664;-63.766;2023-02-28T16:28:17;30.10;46.70
59975;DHT22;62136;-35.664;-63.766;2023-02-28T16:30:45;30.10;46.70
59975;DHT22;62136;-35.664;-63.766;2023-02-28T16:35:51;30.20;46.70
59975;DHT22;62136;-35.664;-63.766;2023-02-28T16:38:18;30.20;46.60
59975;DHT22;62136;-35.664;-63.766;2023-02-28T16:40:50;30.20;46.50
59975;DHT22;62136;-35.664;-63.766;2023-02-28T16:43:23;30.20;46.40
59975;DHT22;62136;-35.664;-63.766;2023-02-28T16:45:58;30.20;46.40
59975;DHT22;62136;-35.664;-63.766;2023-02-28T16:48:26;30.30;46.40
59975;DHT22;62136;-35.664;-63.766;2023-02-28T16:50:53;30.30;46.30
59975;DHT22;62136;-35.664;-63.766;2023-02-28T16:53:20;30.30;46.20
59975;DHT22;62136;-35.664;-63.766;2023-02-28T16:55:47;30.40;46.20
59975;DHT22;62136;-35.664;-63.766;2023-02-28T16:58:15;30.40;46.20
59975;DHT22;62136;-35.664;-63.766;2023-02-28T17:00:43;30.30;46.10
59975;DHT22;62136;-35.664;-63.766;2023-02-28T17:03:23;30.40;46.10
59975;DHT22;62136;-35.664;-63.766;2023-02-28T17:05:51;30.40;46.10
59975;DHT22;62136;-35.664;-63.766;2023-02-28T17:08:18;30.40;46.00
59975;DHT22;62136;-35.664;-63.766;2023-02-28T17:10:45;30.40;46.10
59975;DHT22;62136;-35.664;-63.766;2023-02-28T17:13:13;30.50;46.00
59975;DHT22;62136;-35.664;-63.766;2023-02-28T17:15:40;30.50;45.90
59975;DHT22;62136;-35.664;-63.766;2023-02-28T17:18:12;30.50;45.90
59975;DHT22;62136;-35.664;-63.766;2023-02-28T17:20:41;30.50;45.70
59975;DHT22;62136;-35.664;-63.766;2023-02-28T17:23:09;30.50;45.60
59975;DHT22;62136;-35.664;-63.766;2023-02-28T17:25:38;30.50;45.60
59975;DHT22;62136;-35.664;-63.766;2023-02-28T17:28:06;30.60;45.60
59975;DHT22;62136;-35.664;-63.766;2023-02-28T17:30:34;30.60;45.60
59975;DHT22;62136;-35.664;-63.766;2023-02-28T17:33:01;30.60;45.50
59975;DHT22;62136;-35.664;-63.766;2023-02-28T17:35:29;30.70;45.50
59975;DHT22;62136;-35.664;-63.766;2023-02-28T17:37:56;30.70;45.40
59975;DHT22;62136;-35.664;-63.766;2023-02-28T17:40:24;30.70;45.30
59975;DHT22;62136;-35.664;-63.766;2023-02-28T17:43:04;30.70;45.20
59975;DHT22;62136;-35.664;-63.766;2023-02-28T17:45:35;30.70;45.20
59975;DHT22;62136;-35.664;-63.766;2023-02-28T17:48:02;30.80;45.20
59975;DHT22;62136;-35.664;-63.766;2023-02-28T17:50:29;30.80;45.20
59975;DHT22;62136;-35.664;-63.766;2023-02-28T17:52:58;30.80;45.10
59975;DHT22;62136;-35.664;-63.766;2023-02-28T17:55:25;30.80;45.10
59975;DHT22;62136;-35.664;-63.766;2023-02-28T17:57:52;30.80;45.00
59975;DHT22;62136;-35.664;-63.766;2023-02-28T18:00:20;30.80;44.90
59975;DHT22;62136;-35.664;-63.766;2023-02-28T18:02:50;30.90;45.00